sensor_id;sensor_type;location;lat;lon;timestamp;temperature;humidity
61351;DHT22;47119;49.130;9.218;2022-11-20T00:01:34;12.19;68.41
61351;DHT22;47119;49.130;9.218;2022-11-20T00:04:01;12.16;68.62
61351;DHT22;47119;49.130;9.218;2022-11-20T00:06:30;12.20;68.76
61351;DHT22;47119;49.130;9.218;2022-11-20T00:09:01;12.22;68.79
61351;DHT22;47119;49.130;9.218;2022-11-20T00:11:33;12.19;68.64
61351;DHT22;47119;49.130;9.218;2022-11-20T00:14:01;12.20;68.61
61351;DHT22;47119;49.130;9.218;2022-11-20T00:16:31;12.19;68.88
61351;DHT22;47119;49.130;9.218;2022-11-20T00:18:59;12.22;68.99
61351;DHT22;47119;49.130;9.218;2022-11-20T00:21:27;12.22;69.05
61351;DHT22;47119;49.130;9.218;2022-11-20T00:23:56;12.23;68.50
61351;DHT22;47119;49.130;9.218;2022-11-20T00:26:26;12.23;68.09
61351;DHT22;47119;49.130;9.218;2022-11-20T00:28:57;12.16;68.28
61351;DHT22;47119;49.130;9.218;2022-11-20T00:31:29;12.16;68.56
61351;DHT22;47119;49.130;9.218;2022-11-20T00:33:58;12.19;68.29
61351;DHT22;47119;49.130;9.218;2022-11-20T00:36:27;12.14;67.98
61351;DHT22;47119;49.130;9.218;2022-11-20T00:38:58;12.16;68.64
61351;DHT22;47119;49.130;9.218;2022-11-20T00:41:30;12.17;68.63
61351;DHT22;47119;49.130;9.218;2022-11-20T00:43:57;12.16;68.66
61351;DHT22;47119;49.130;9.218;2022-11-20T00:46:27;12.13;68.20
61351;DHT22;47119;49.130;9.218;2022-11-20T00:48:57;12.14;68.50
61351;DHT22;47119;49.130;9.218;2022-11-20T00:51:26;12.19;68.97
61351;DHT22;47119;49.130;9.218;2022-11-20T00:53:55;12.22;68.91
61351;DHT22;47119;49.130;9.218;2022-11-20T00:56:23;12.22;68.41
61351;DHT22;47119;49.130;9.218;2022-11-20T00:58:51;12.19;68.59
61351;DHT22;47119;49.130;9.218;2022-11-20T01:01:20;12.22;68.67
61351;DHT22;47119;49.130;9.218;2022-11-20T01:03:50;12.20;69.15
61351;DHT22;47119;49.130;9.218;2022-11-20T01:06:20;12.20;69.28
61351;DHT22;47119;49.130;9.218;2022-11-20T01:08:52;12.19;68.56
61351;DHT22;47119;49.130;9.218;2022-11-20T01:11:24;12.19;68.97
61351;DHT22;47119;49.130;9.218;2022-11-20T01:13:55;12.14;68.29
61351;DHT22;47119;49.130;9.218;2022-11-20T01:16:25;12.14;68.35
61351;DHT22;47119;49.130;9.218;2022-11-20T01:18:55;12.22;69.19
61351;DHT22;47119;49.130;9.218;2022-11-20T01:21:25;12.22;68.68
61351;DHT22;47119;49.130;9.218;2022-11-20T01:23:54;12.26;69.20
61351;DHT22;47119;49.130;9.218;2022-11-20T01:26:23;12.24;68.86
61351;DHT22;47119;49.130;9.218;2022-11-20T01:28:57;12.23;69.22
61351;DHT22;47119;49.130;9.218;2022-11-20T01:31:27;12.23;68.99
61351;DHT22;47119;49.130;9.218;2022-11-20T01:33:59;12.26;69.45
61351;DHT22;47119;49.130;9.218;2022-11-20T01:36:29;12.26;68.90
61351;DHT22;47119;49.130;9.218;2022-11-20T01:39:00;12.23;68.52
61351;DHT22;47119;49.130;9.218;2022-11-20T01:41:34;12.27;69.42
61351;DHT22;47119;49.130;9.218;2022-11-20T01:44:39;12.27;68.56
61351;DHT22;47119;49.130;9.218;2022-11-20T01:47:18;12.27;69.10
61351;DHT22;47119;49.130;9.218;2022-11-20T01:49:56;12.24;68.71
61351;DHT22;47119;49.130;9.218;2022-11-20T01:52:30;12.27;69.35
61351;DHT22;47119;49.130;9.218;2022-11-20T01:55:04;12.23;68.80
61351;DHT22;47119;49.130;9.218;2022-11-20T01:57:37;12.27;69.27
61351;DHT22;47119;49.130;9.218;2022-11-20T02:00:13;12.24;69.54
61351;DHT22;47119;49.130;9.218;2022-11-20T02:02:45;12.27;68.99
61351;DHT22;47119;49.130;9.218;2022-11-20T02:05:19;12.26;69.11
61351;DHT22;47119;49.130;9.218;2022-11-20T02:07:52;12.26;69.28
61351;DHT22;47119;49.130;9.218;2022-11-20T02:10:27;12.30;69.65
61351;DHT22;47119;49.130;9.218;2022-11-20T02:12:55;12.29;69.02
61351;DHT22;47119;49.130;9.218;2022-11-20T02:15:42;12.24;69.28
61351;DHT22;47119;49.130;9.218;2022-11-20T02:18:11;12.27;69.47
61351;DHT22;47119;49.130;9.218;2022-11-20T02:20:41;12.27;69.52
61351;DHT22;47119;49.130;9.218;2022-11-20T02:23:13;12.24;69.15
61351;DHT22;47119;49.130;9.218;2022-11-20T02:25:47;12.30;69.28
61351;DHT22;47119;49.130;9.218;2022-11-20T02:28:17;12.30;69.78
61351;DHT22;47119;49.130;9.218;2022-11-20T02:30:47;12.29;69.61
61351;DHT22;47119;49.130;9.218;2022-11-20T02:33:18;12.30;69.60
61351;DHT22;47119;49.130;9.218;2022-11-20T02:35:47;12.29;68.90
61351;DHT22;47119;49.130;9.218;2022-11-20T02:38:15;12.30;68.97
61351;DHT22;47119;49.130;9.218;2022-11-20T02:40:42;12.30;69.48
61351;DHT22;47119;49.130;9.218;2022-11-20T02:43:11;12.34;69.63
61351;DHT22;47119;49.130;9.218;2022-11-20T02:45:40;12.33;69.20
61351;DHT22;47119;49.130;9.218;2022-11-20T02:48:07;12.32;69.83
61351;DHT22;47119;49.130;9.218;2022-11-20T02:50:37;12.30;69.82
61351;DHT22;47119;49.130;9.218;2022-11-20T02:53:07;12.32;69.65
61351;DHT22;47119;49.130;9.218;2022-11-20T02:55:35;12.34;69.58
61351;DHT22;47119;49.130;9.218;2022-11-20T02:58:03;12.33;69.89
61351;DHT22;47119;49.130;9.218;2022-11-20T03:00:31;12.32;69.55
61351;DHT22;47119;49.130;9.218;2022-11-20T03:02:59;12.32;69.43
61351;DHT22;47119;49.130;9.218;2022-11-20T03:05:26;12.32;69.93
61351;DHT22;47119;49.130;9.218;2022-11-20T03:07:53;12.32;70.16
61351;DHT22;47119;49.130;9.218;2022-11-20T03:10:20;12.30;70.05
61351;DHT22;47119;49.130;9.218;2022-11-20T03:12:47;12.32;70.19
61351;DHT22;47119;49.130;9.218;2022-11-20T03:15:19;12.32;70.14
61351;DHT22;47119;49.130;9.218;2022-11-20T03:17:48;12.32;70.32
61351;DHT22;47119;49.130;9.218;2022-11-20T03:20:15;12.33;70.15
61351;DHT22;47119;49.130;9.218;2022-11-20T03:22:42;12.30;70.24
61351;DHT22;47119;49.130;9.218;2022-11-20T03:25:09;12.33;70.21
61351;DHT22;47119;49.130;9.218;2022-11-20T03:27:39;12.33;70.64
61351;DHT22;47119;49.130;9.218;2022-11-20T03:30:07;12.33;70.41
61351;DHT22;47119;49.130;9.218;2022-11-20T03:32:35;12.33;70.55
61351;DHT22;47119;49.130;9.218;2022-11-20T03:35:04;12.32;70.29
61351;DHT22;47119;49.130;9.218;2022-11-20T03:37:32;12.33;70.44
61351;DHT22;47119;49.130;9.218;2022-11-20T03:39:59;12.33;70.52
61351;DHT22;47119;49.130;9.218;2022-11-20T03:42:26;12.38;70.91
61351;DHT22;47119;49.130;9.218;2022-11-20T03:45:12;12.51;71.03
61351;DHT22;47119;49.130;9.218;2022-11-20T03:47:43;12.60;71.03
61351;DHT22;47119;49.130;9.218;2022-11-20T03:50:14;12.68;70.43
61351;DHT22;47119;49.130;9.218;2022-11-20T03:52:41;12.71;70.46
61351;DHT22;47119;49.130;9.218;2022-11-20T03:55:09;12.84;70.38
61351;DHT22;47119;49.130;9.218;2022-11-20T03:57:36;12.84;70.31
61351;DHT22;47119;49.130;9.218;2022-11-20T04:00:04;12.89;70.29
61351;DHT22;47119;49.130;9.218;2022-11-20T04:02:32;12.94;70.00
61351;DHT22;47119;49.130;9.218;2022-11-20T04:05:00;12.96;70.29
61351;DHT22;47119;49.130;9.218;2022-11-20T04:07:28;12.98;70.31
61351;DHT22;47119;49.130;9.218;2022-11-20T04:09:55;12.98;70.25
61351;DHT22;47119;49.130;9.218;2022-11-20T04:12:22;12.99;70.31
61351;DHT22;47119;49.130;9.218;2022-11-20T04:14:49;13.02;70.45
61351;DHT22;47119;49.130;9.218;2022-11-20T04:17:16;12.98;70.31
61351;DHT22;47119;49.130;9.218;2022-11-20T04:19:43;13.01;70.49
61351;DHT22;47119;49.130;9.218;2022-11-20T04:22:10;13.02;70.55
61351;DHT22;47119;49.130;9.218;2022-11-20T04:24:39;13.03;70.51
61351;DHT22;47119;49.130;9.218;2022-11-20T04:27:06;13.02;70.84
61351;DHT22;47119;49.130;9.218;2022-11-20T04:29:35;12.98;70.75
61351;DHT22;47119;49.130;9.218;2022-11-20T04:32:07;12.94;70.79
61351;DHT22;47119;49.130;9.218;2022-11-20T04:34:37;12.96;70.79
61351;DHT22;47119;49.130;9.218;2022-11-20T04:37:04;12.98;70.79
61351;DHT22;47119;49.130;9.218;2022-11-20T04:39:31;12.91;70.71
61351;DHT22;47119;49.130;9.218;2022-11-20T04:42:02;12.94;70.94
61351;DHT22;47119;49.130;9.218;2022-11-20T04:44:49;12.92;70.88
61351;DHT22;47119;49.130;9.218;2022-11-20T04:47:16;12.92;70.95
61351;DHT22;47119;49.130;9.218;2022-11-20T04:49:45;12.91;70.94
61351;DHT22;47119;49.130;9.218;2022-11-20T04:52:13;12.89;71.11
61351;DHT22;47119;49.130;9.218;2022-11-20T04:54:40;12.91;70.65
61351;DHT22;47119;49.130;9.218;2022-11-20T04:57:09;12.89;71.00
61351;DHT22;47119;49.130;9.218;2022-11-20T04:59:41;12.88;71.25
61351;DHT22;47119;49.130;9.218;2022-11-20T05:02:09;12.87;70.94
61351;DHT22;47119;49.130;9.218;2022-11-20T05:04:36;12.85;71.13
61351;DHT22;47119;49.130;9.218;2022-11-20T05:07:06;12.87;71.35
61351;DHT22;47119;49.130;9.218;2022-11-20T05:09:33;12.84;71.08
61351;DHT22;47119;49.130;9.218;2022-11-20T05:12:00;12.88;70.84
61351;DHT22;47119;49.130;9.218;2022-11-20T05:14:28;12.89;71.19
61351;DHT22;47119;49.130;9.218;2022-11-20T05:16:56;12.91;71.62
61351;DHT22;47119;49.130;9.218;2022-11-20T05:19:25;12.92;71.35
61351;DHT22;47119;49.130;9.218;2022-11-20T05:21:53;12.92;71.08
61351;DHT22;47119;49.130;9.218;2022-11-20T05:24:20;12.92;70.81
61351;DHT22;47119;49.130;9.218;2022-11-20T05:26:47;12.94;71.20
61351;DHT22;47119;49.130;9.218;2022-11-20T05:29:14;12.94;71.20
61351;DHT22;47119;49.130;9.218;2022-11-20T05:31:43;12.96;71.17
61351;DHT22;47119;49.130;9.218;2022-11-20T05:34:10;12.96;70.70
61351;DHT22;47119;49.130;9.218;2022-11-20T05:36:37;12.94;71.26
61351;DHT22;47119;49.130;9.218;2022-11-20T05:39:07;12.95;71.13
61351;DHT22;47119;49.130;9.218;2022-11-20T05:41:34;12.94;71.52
61351;DHT22;47119;49.130;9.218;2022-11-20T05:44:01;12.94;71.52
61351;DHT22;47119;49.130;9.218;2022-11-20T05:46:31;12.95;71.25
61351;DHT22;47119;49.130;9.218;2022-11-20T05:48:59;12.96;71.27
61351;DHT22;47119;49.130;9.218;2022-11-20T05:51:27;12.95;71.30
61351;DHT22;47119;49.130;9.218;2022-11-20T05:53:56;12.94;71.80
61351;DHT22;47119;49.130;9.218;2022-11-20T05:56:24;12.91;71.71
61351;DHT22;47119;49.130;9.218;2022-11-20T05:58:51;12.94;71.90
61351;DHT22;47119;49.130;9.218;2022-11-20T06:01:19;12.91;71.63
61351;DHT22;47119;49.130;9.218;2022-11-20T06:03:49;12.96;71.95
61351;DHT22;47119;49.130;9.218;2022-11-20T06:06:19;12.95;71.31
61351;DHT22;47119;49.130;9.218;2022-11-20T06:08:47;12.91;71.83
61351;DHT22;47119;49.130;9.218;2022-11-20T06:11:15;12.89;71.39
61351;DHT22;47119;49.130;9.218;2022-11-20T06:13:46;12.89;71.80
61351;DHT22;47119;49.130;9.218;2022-11-20T06:16:15;12.87;71.18
61351;DHT22;47119;49.130;9.218;2022-11-20T06:18:44;12.88;71.34
61351;DHT22;47119;49.130;9.218;2022-11-20T06:21:13;12.91;71.63
61351;DHT22;47119;49.130;9.218;2022-11-20T06:23:49;12.88;71.23
61351;DHT22;47119;49.130;9.218;2022-11-20T06:26:18;12.88;71.64
61351;DHT22;47119;49.130;9.218;2022-11-20T06:28:47;12.85;71.24
61351;DHT22;47119;49.130;9.218;2022-11-20T06:31:18;12.89;71.68
61351;DHT22;47119;49.130;9.218;2022-11-20T06:33:47;12.89;71.35
61351;DHT22;47119;49.130;9.218;2022-11-20T06:36:16;12.91;71.80
61351;DHT22;47119;49.130;9.218;2022-11-20T06:38:48;12.94;71.81
61351;DHT22;47119;49.130;9.218;2022-11-20T06:41:18;12.92;71.53
61351;DHT22;47119;49.130;9.218;2022-11-20T06:43:49;12.94;71.95
61351;DHT22;47119;49.130;9.218;2022-11-20T06:46:18;12.94;72.14
61351;DHT22;47119;49.130;9.218;2022-11-20T06:48:46;12.94;71.91
61351;DHT22;47119;49.130;9.218;2022-11-20T06:51:14;12.95;71.89
61351;DHT22;47119;49.130;9.218;2022-11-20T06:53:44;12.92;71.22
61351;DHT22;47119;49.130;9.218;2022-11-20T06:56:13;12.91;71.79
61351;DHT22;47119;49.130;9.218;2022-11-20T06:58:40;12.88;71.60
61351;DHT22;47119;49.130;9.218;2022-11-20T07:01:11;12.87;71.59
61351;DHT22;47119;49.130;9.218;2022-11-20T07:03:40;12.92;71.58
61351;DHT22;47119;49.130;9.218;2022-11-20T07:06:08;12.89;71.76
61351;DHT22;47119;49.130;9.218;2022-11-20T07:08:36;12.89;71.98
61351;DHT22;47119;49.130;9.218;2022-11-20T07:11:05;12.89;71.59
61351;DHT22;47119;49.130;9.218;2022-11-20T07:13:34;12.85;71.74
61351;DHT22;47119;49.130;9.218;2022-11-20T07:16:03;12.91;71.95
61351;DHT22;47119;49.130;9.218;2022-11-20T07:18:32;12.88;72.02
61351;DHT22;47119;49.130;9.218;2022-11-20T07:21:01;12.89;72.35
61351;DHT22;47119;49.130;9.218;2022-11-20T07:23:29;12.87;72.28
61351;DHT22;47119;49.130;9.218;2022-11-20T07:25:56;12.87;72.21
61351;DHT22;47119;49.130;9.218;2022-11-20T07:28:23;12.87;72.35
61351;DHT22;47119;49.130;9.218;2022-11-20T07:30:52;12.89;72.23
61351;DHT22;47119;49.130;9.218;2022-11-20T07:33:20;12.88;72.59
61351;DHT22;47119;49.130;9.218;2022-11-20T07:35:47;12.88;72.60
61351;DHT22;47119;49.130;9.218;2022-11-20T07:38:14;12.91;72.54
61351;DHT22;47119;49.130;9.218;2022-11-20T07:40:41;12.89;72.47
61351;DHT22;47119;49.130;9.218;2022-11-20T07:43:08;12.92;71.91
61351;DHT22;47119;49.130;9.218;2022-11-20T07:45:36;12.91;72.10
61351;DHT22;47119;49.130;9.218;2022-11-20T07:48:05;12.94;72.52
61351;DHT22;47119;49.130;9.218;2022-11-20T07:50:34;12.91;72.21
61351;DHT22;47119;49.130;9.218;2022-11-20T07:53:02;12.95;72.37
61351;DHT22;47119;49.130;9.218;2022-11-20T07:55:32;12.98;72.47
61351;DHT22;47119;49.130;9.218;2022-11-20T07:58:00;12.95;71.82
61351;DHT22;47119;49.130;9.218;2022-11-20T08:00:27;13.02;72.21
61351;DHT22;47119;49.130;9.218;2022-11-20T08:02:54;13.02;72.62
61351;DHT22;47119;49.130;9.218;2022-11-20T08:05:26;13.06;73.01
61351;DHT22;47119;49.130;9.218;2022-11-20T08:07:56;13.06;72.62
61351;DHT22;47119;49.130;9.218;2022-11-20T08:10:23;13.03;72.54
61351;DHT22;47119;49.130;9.218;2022-11-20T08:12:52;13.02;72.95
61351;DHT22;47119;49.130;9.218;2022-11-20T08:15:40;13.01;72.57
61351;DHT22;47119;49.130;9.218;2022-11-20T08:18:09;13.03;72.56
61351;DHT22;47119;49.130;9.218;2022-11-20T08:20:39;13.03;72.14
61351;DHT22;47119;49.130;9.218;2022-11-20T08:23:07;13.06;72.43
61351;DHT22;47119;49.130;9.218;2022-11-20T08:25:35;13.09;71.94
61351;DHT22;47119;49.130;9.218;2022-11-20T08:28:07;13.08;71.85
61351;DHT22;47119;49.130;9.218;2022-11-20T08:30:41;13.08;71.80
61351;DHT22;47119;49.130;9.218;2022-11-20T08:33:16;13.08;72.34
61351;DHT22;47119;49.130;9.218;2022-11-20T08:35:45;13.06;72.30
61351;DHT22;47119;49.130;9.218;2022-11-20T08:38:16;13.09;72.65
61351;DHT22;47119;49.130;9.218;2022-11-20T08:40:43;13.03;72.66
61351;DHT22;47119;49.130;9.218;2022-11-20T08:43:30;13.09;72.43
61351;DHT22;47119;49.130;9.218;2022-11-20T08:45:57;13.11;72.35
61351;DHT22;47119;49.130;9.218;2022-11-20T08:48:24;13.12;72.72
61351;DHT22;47119;49.130;9.218;2022-11-20T08:50:58;13.08;72.46
61351;DHT22;47119;49.130;9.218;2022-11-20T08:53:28;13.08;72.47
61351;DHT22;47119;49.130;9.218;2022-11-20T08:55:56;13.08;72.18
61351;DHT22;47119;49.130;9.218;2022-11-20T08:58:26;13.02;72.16
61351;DHT22;47119;49.130;9.218;2022-11-20T09:01:07;13.02;72.05
61351;DHT22;47119;49.130;9.218;2022-11-20T09:04:36;13.03;73.00
61351;DHT22;47119;49.130;9.218;2022-11-20T09:10:08;13.06;72.62
61351;DHT22;47119;49.130;9.218;2022-11-20T09:12:37;13.12;73.26
61351;DHT22;47119;49.130;9.218;2022-11-20T09:15:07;13.16;72.38
61351;DHT22;47119;49.130;9.218;2022-11-20T09:17:35;13.15;72.51
61351;DHT22;47119;49.130;9.218;2022-11-20T09:20:31;13.18;72.87
61351;DHT22;47119;49.130;9.218;2022-11-20T09:23:00;13.15;72.12
61351;DHT22;47119;49.130;9.218;2022-11-20T09:25:51;13.16;71.96
61351;DHT22;47119;49.130;9.218;2022-11-20T09:28:37;13.16;72.51
61351;DHT22;47119;49.130;9.218;2022-11-20T09:31:19;13.13;72.34
61351;DHT22;47119;49.130;9.218;2022-11-20T09:33:49;13.09;72.21
61351;DHT22;47119;49.130;9.218;2022-11-20T09:36:27;13.08;72.09
61351;DHT22;47119;49.130;9.218;2022-11-20T09:38:58;13.11;72.48
61351;DHT22;47119;49.130;9.218;2022-11-20T09:41:51;13.11;72.09
61351;DHT22;47119;49.130;9.218;2022-11-20T09:45:19;13.11;72.60
61351;DHT22;47119;49.130;9.218;2022-11-20T09:48:03;13.19;72.53
61351;DHT22;47119;49.130;9.218;2022-11-20T09:50:57;13.20;72.51
61351;DHT22;47119;49.130;9.218;2022-11-20T09:53:35;13.19;72.25
61351;DHT22;47119;49.130;9.218;2022-11-20T09:56:19;13.22;72.53
61351;DHT22;47119;49.130;9.218;2022-11-20T09:58:50;13.20;72.12
61351;DHT22;47119;49.130;9.218;2022-11-20T10:01:26;13.27;72.79
61351;DHT22;47119;49.130;9.218;2022-11-20T10:04:02;13.29;72.14
61351;DHT22;47119;49.130;9.218;2022-11-20T10:06:41;13.27;71.80
61351;DHT22;47119;49.130;9.218;2022-11-20T10:09:21;13.30;71.59
61351;DHT22;47119;49.130;9.218;2022-11-20T10:12:06;13.29;71.52
61351;DHT22;47119;49.130;9.218;2022-11-20T10:14:57;13.26;71.45
61351;DHT22;47119;49.130;9.218;2022-11-20T10:17:50;13.29;72.31
61351;DHT22;47119;49.130;9.218;2022-11-20T10:20:37;13.36;72.08
61351;DHT22;47119;49.130;9.218;2022-11-20T10:26:17;13.35;71.80
61351;DHT22;47119;49.130;9.218;2022-11-20T10:29:06;13.33;71.54
61351;DHT22;47119;49.130;9.218;2022-11-20T10:31:40;13.38;71.77
61351;DHT22;47119;49.130;9.218;2022-11-20T10:34:19;13.39;71.47
61351;DHT22;47119;49.130;9.218;2022-11-20T10:36:55;13.40;71.44
61351;DHT22;47119;49.130;9.218;2022-11-20T10:39:32;13.44;71.11
61351;DHT22;47119;49.130;9.218;2022-11-20T10:42:08;13.42;70.76
61351;DHT22;47119;49.130;9.218;2022-11-20T10:44:49;13.36;70.85
61351;DHT22;47119;49.130;9.218;2022-11-20T10:47:36;13.35;70.73
61351;DHT22;47119;49.130;9.218;2022-11-20T10:50:05;13.38;71.05
61351;DHT22;47119;49.130;9.218;2022-11-20T10:52:48;13.38;71.12
61351;DHT22;47119;49.130;9.218;2022-11-20T10:55:28;13.38;70.74
61351;DHT22;47119;49.130;9.218;2022-11-20T10:58:04;13.35;71.03
61351;DHT22;47119;49.130;9.218;2022-11-20T11:00:41;13.39;71.09
61351;DHT22;47119;49.130;9.218;2022-11-20T11:03:25;13.39;70.64
61351;DHT22;47119;49.130;9.218;2022-11-20T11:06:01;13.35;70.72
61351;DHT22;47119;49.130;9.218;2022-11-20T11:08:36;13.32;70.59
61351;DHT22;47119;49.130;9.218;2022-11-20T11:11:20;13.35;71.18
61351;DHT22;47119;49.130;9.218;2022-11-20T11:13:49;13.33;70.56
61351;DHT22;47119;49.130;9.218;2022-11-20T11:16:22;13.36;70.80
61351;DHT22;47119;49.130;9.218;2022-11-20T11:18:51;13.33;70.86
61351;DHT22;47119;49.130;9.218;2022-11-20T11:21:23;13.30;70.96
61351;DHT22;47119;49.130;9.218;2022-11-20T11:23:59;13.27;70.65
61351;DHT22;47119;49.130;9.218;2022-11-20T11:26:29;13.26;71.21
61351;DHT22;47119;49.130;9.218;2022-11-20T11:28:57;13.30;70.58
61351;DHT22;47119;49.130;9.218;2022-11-20T11:31:28;13.29;70.80
61351;DHT22;47119;49.130;9.218;2022-11-20T11:34:05;13.35;71.20
61351;DHT22;47119;49.130;9.218;2022-11-20T11:36:33;13.38;71.30
61351;DHT22;47119;49.130;9.218;2022-11-20T11:39:03;13.40;71.01
61351;DHT22;47119;49.130;9.218;2022-11-20T11:41:33;13.38;70.95
61351;DHT22;47119;49.130;9.218;2022-11-20T11:44:15;13.36;70.96
61351;DHT22;47119;49.130;9.218;2022-11-20T11:47:08;13.43;71.19
61351;DHT22;47119;49.130;9.218;2022-11-20T11:49:38;13.44;71.25
61351;DHT22;47119;49.130;9.218;2022-11-20T11:52:12;13.49;70.75
61351;DHT22;47119;49.130;9.218;2022-11-20T11:54:49;13.46;70.88
61351;DHT22;47119;49.130;9.218;2022-11-20T11:57:24;13.43;70.65
61351;DHT22;47119;49.130;9.218;2022-11-20T12:00:01;13.38;70.90
61351;DHT22;47119;49.130;9.218;2022-11-20T12:02:52;13.39;71.21
61351;DHT22;47119;49.130;9.218;2022-11-20T12:05:26;13.39;71.23
61351;DHT22;47119;49.130;9.218;2022-11-20T12:07:58;13.38;71.21
61351;DHT22;47119;49.130;9.218;2022-11-20T12:10:40;13.42;70.96
61351;DHT22;47119;49.130;9.218;2022-11-20T12:13:25;13.44;71.07
61351;DHT22;47119;49.130;9.218;2022-11-20T12:16:11;13.44;71.11
61351;DHT22;47119;49.130;9.218;2022-11-20T12:18:42;13.49;70.72
61351;DHT22;47119;49.130;9.218;2022-11-20T12:21:20;13.44;70.40
61351;DHT22;47119;49.130;9.218;2022-11-20T12:24:21;13.42;70.73
61351;DHT22;47119;49.130;9.218;2022-11-20T12:27:26;13.46;70.57
61351;DHT22;47119;49.130;9.218;2022-11-20T12:30:12;13.42;70.48
61351;DHT22;47119;49.130;9.218;2022-11-20T12:36:07;13.43;70.81
61351;DHT22;47119;49.130;9.218;2022-11-20T12:39:03;13.39;70.52
61351;DHT22;47119;49.130;9.218;2022-11-20T12:42:00;13.42;70.69
61351;DHT22;47119;49.130;9.218;2022-11-20T12:45:09;13.42;70.79
61351;DHT22;47119;49.130;9.218;2022-11-20T12:48:13;13.44;70.65
61351;DHT22;47119;49.130;9.218;2022-11-20T12:51:07;13.46;70.78
61351;DHT22;47119;49.130;9.218;2022-11-20T12:54:06;13.47;70.63
61351;DHT22;47119;49.130;9.218;2022-11-20T12:56:55;13.46;70.74
61351;DHT22;47119;49.130;9.218;2022-11-20T12:59:37;13.47;70.82
61351;DHT22;47119;49.130;9.218;2022-11-20T13:02:25;13.47;70.54
61351;DHT22;47119;49.130;9.218;2022-11-20T13:05:17;13.46;70.10
61351;DHT22;47119;49.130;9.218;2022-11-20T13:07:53;13.42;70.13
61351;DHT22;47119;49.130;9.218;2022-11-20T13:10:30;13.39;70.19
61351;DHT22;47119;49.130;9.218;2022-11-20T13:13:10;13.38;69.53
61351;DHT22;47119;49.130;9.218;2022-11-20T13:15:50;13.35;69.75
61351;DHT22;47119;49.130;9.218;2022-11-20T13:18:22;13.39;70.22
61351;DHT22;47119;49.130;9.218;2022-11-20T13:20:50;13.44;69.97
61351;DHT22;47119;49.130;9.218;2022-11-20T13:23:25;13.49;69.94
61351;DHT22;47119;49.130;9.218;2022-11-20T13:26:04;13.42;69.62
61351;DHT22;47119;49.130;9.218;2022-11-20T13:28:33;13.46;69.82
61351;DHT22;47119;49.130;9.218;2022-11-20T13:31:04;13.47;70.20
61351;DHT22;47119;49.130;9.218;2022-11-20T13:33:33;13.52;69.73
61351;DHT22;47119;49.130;9.218;2022-11-20T13:36:07;13.50;69.77
61351;DHT22;47119;49.130;9.218;2022-11-20T13:38:53;13.52;69.56
61351;DHT22;47119;49.130;9.218;2022-11-20T13:41:25;13.50;69.73
61351;DHT22;47119;49.130;9.218;2022-11-20T13:43:58;13.47;69.72
61351;DHT22;47119;49.130;9.218;2022-11-20T13:46:37;13.52;69.91
61351;DHT22;47119;49.130;9.218;2022-11-20T13:49:10;13.53;69.53
61351;DHT22;47119;49.130;9.218;2022-11-20T13:51:46;13.54;69.67
61351;DHT22;47119;49.130;9.218;2022-11-20T13:57:40;13.59;68.96
61351;DHT22;47119;49.130;9.218;2022-11-20T14:00:44;13.57;69.05
61351;DHT22;47119;49.130;9.218;2022-11-20T14:03:18;13.59;69.16
61351;DHT22;47119;49.130;9.218;2022-11-20T14:05:51;13.57;69.43
61351;DHT22;47119;49.130;9.218;2022-11-20T14:08:26;13.59;69.71
61351;DHT22;47119;49.130;9.218;2022-11-20T14:11:05;13.57;69.16
61351;DHT22;47119;49.130;9.218;2022-11-20T14:13:59;13.54;69.04
61351;DHT22;47119;49.130;9.218;2022-11-20T14:16:31;13.57;68.51
61351;DHT22;47119;49.130;9.218;2022-11-20T14:19:30;13.59;69.00
61351;DHT22;47119;49.130;9.218;2022-11-20T14:22:14;13.59;68.76
61351;DHT22;47119;49.130;9.218;2022-11-20T14:24:48;13.57;68.58
61351;DHT22;47119;49.130;9.218;2022-11-20T14:27:33;13.53;67.88
61351;DHT22;47119;49.130;9.218;2022-11-20T14:30:10;13.56;68.38
61351;DHT22;47119;49.130;9.218;2022-11-20T14:32:42;13.59;67.37
61351;DHT22;47119;49.130;9.218;2022-11-20T14:35:16;13.54;67.73
61351;DHT22;47119;49.130;9.218;2022-11-20T14:37:51;13.52;67.78
61351;DHT22;47119;49.130;9.218;2022-11-20T14:40:23;13.47;67.88
61351;DHT22;47119;49.130;9.218;2022-11-20T14:42:57;13.47;67.97
61351;DHT22;47119;49.130;9.218;2022-11-20T14:45:28;13.50;67.48
61351;DHT22;47119;49.130;9.218;2022-11-20T14:47:57;13.44;67.37
61351;DHT22;47119;49.130;9.218;2022-11-20T14:50:28;13.43;67.68
61351;DHT22;47119;49.130;9.218;2022-11-20T14:53:00;13.36;68.15
61351;DHT22;47119;49.130;9.218;2022-11-20T14:55:29;13.42;68.44
61351;DHT22;47119;49.130;9.218;2022-11-20T14:58:04;13.40;68.32
61351;DHT22;47119;49.130;9.218;2022-11-20T15:00:34;13.43;68.00
61351;DHT22;47119;49.130;9.218;2022-11-20T15:03:15;13.40;67.76
61351;DHT22;47119;49.130;9.218;2022-11-20T15:05:48;13.36;67.59
61351;DHT22;47119;49.130;9.218;2022-11-20T15:08:16;13.36;67.65
61351;DHT22;47119;49.130;9.218;2022-11-20T15:10:49;13.38;67.93
61351;DHT22;47119;49.130;9.218;2022-11-20T15:13:26;13.38;67.92
61351;DHT22;47119;49.130;9.218;2022-11-20T15:15:59;13.42;67.96
61351;DHT22;47119;49.130;9.218;2022-11-20T15:18:33;13.42;67.85
61351;DHT22;47119;49.130;9.218;2022-11-20T15:21:14;13.39;67.70
61351;DHT22;47119;49.130;9.218;2022-11-20T15:23:51;13.36;68.31
61351;DHT22;47119;49.130;9.218;2022-11-20T15:26:23;13.33;68.16
61351;DHT22;47119;49.130;9.218;2022-11-20T15:29:11;13.30;68.35
61351;DHT22;47119;49.130;9.218;2022-11-20T15:31:44;13.26;68.87
61351;DHT22;47119;49.130;9.218;2022-11-20T15:34:15;13.27;68.18
61351;DHT22;47119;49.130;9.218;2022-11-20T15:36:42;13.27;68.62
61351;DHT22;47119;49.130;9.218;2022-11-20T15:39:12;13.26;68.47
61351;DHT22;47119;49.130;9.218;2022-11-20T15:41:39;13.20;68.73
61351;DHT22;47119;49.130;9.218;2022-11-20T15:44:10;13.20;68.74
61351;DHT22;47119;49.130;9.218;2022-11-20T15:46:40;13.18;68.80
61351;DHT22;47119;49.130;9.218;2022-11-20T15:49:14;13.16;68.89
61351;DHT22;47119;49.130;9.218;2022-11-20T15:51:50;13.16;69.34
61351;DHT22;47119;49.130;9.218;2022-11-20T15:54:20;13.16;69.15
61351;DHT22;47119;49.130;9.218;2022-11-20T15:56:50;13.15;68.85
61351;DHT22;47119;49.130;9.218;2022-11-20T15:59:20;13.20;68.72
61351;DHT22;47119;49.130;9.218;2022-11-20T16:01:47;13.18;69.45
61351;DHT22;47119;49.130;9.218;2022-11-20T16:04:24;13.11;68.18
61351;DHT22;47119;49.130;9.218;2022-11-20T16:06:51;13.16;68.72
61351;DHT22;47119;49.130;9.218;2022-11-20T16:09:19;13.16;68.66
61351;DHT22;47119;49.130;9.218;2022-11-20T16:11:49;13.16;68.27
61351;DHT22;47119;49.130;9.218;2022-11-20T16:14:19;13.13;68.62
61351;DHT22;47119;49.130;9.218;2022-11-20T16:17:07;13.16;68.54
61351;DHT22;47119;49.130;9.218;2022-11-20T16:19:34;13.18;68.32
61351;DHT22;47119;49.130;9.218;2022-11-20T16:22:05;13.18;68.07